Time;durP1;ratioP1;P1;durP2;ratioP2;P2;SDS_P1;SDS_P2;PMS_P1;PMS_P2;Temp;Humidity;BMP_temperature;BMP_pressure;BME280_temperature;BME280_humidity;BME280_pressure;Samples;Min_cycle;Max_cycle;Signal;HPM_P1;HPM_P2
2023/03/21 00:01:14;;;;;;;16.70;9.95;;;10.20;97.50;;;;;;4967382;28;20388;-89
2023/03/21 00:03:45;;;;;;;14.10;8.93;;;10.10;97.60;;;;;;4956114;28;20508;-90
2023/03/21 00:06:16;;;;;;;16.02;9.50;;;10.10;97.60;;;;;;4967639;28;20048;-92
2023/03/21 00:08:43;;;;;;;14.10;8.90;;;10.10;97.70;;;;;;4977653;28;20054;-93
2023/03/21 00:11:15;;;;;;;12.70;7.25;;;10.10;97.70;;;;;;4979920;28;20047;-89
2023/03/21 00:13:42;;;;;;;10.68;7.07;;;10.10;97.70;;;;;;4995068;28;20124;-87
2023/03/21 00:16:15;;;;;;;12.38;7.85;;;10.10;97.70;;;;;;4978440;28;20051;-87
2023/03/21 00:18:53;;;;;;;11.68;7.20;;;10.20;97.80;;;;;;4981839;28;20050;-87
2023/03/21 00:21:27;;;;;;;15.15;8.18;;;10.20;97.80;;;;;;4978456;28;20047;-92
2023/03/21 00:24:15;;;;;;;15.70;9.18;;;10.10;97.80;;;;;;4980118;28;20479;-93
2023/03/21 00:26:43;;;;;;;13.65;8.48;;;10.10;97.80;;;;;;4974056;28;20089;-93
2023/03/21 00:29:10;;;;;;;18.38;10.27;;;10.10;97.80;;;;;;4983976;28;20096;-93
2023/03/21 00:31:37;;;;;;;15.90;9.07;;;10.10;97.90;;;;;;4984319;28;20054;-93
2023/03/21 00:34:05;;;;;;;13.68;8.60;;;10.10;97.90;;;;;;4968473;28;20058;-93
2023/03/21 00:36:32;;;;;;;13.40;8.52;;;10.10;97.90;;;;;;4983959;28;20046;-92
2023/03/21 00:39:05;;;;;;;14.63;9.20;;;10.10;97.90;;;;;;4968323;28;20050;-93
2023/03/21 00:41:32;;;;;;;14.73;10.65;;;10.10;98.00;;;;;;4968065;28;20594;-93
2023/03/21 00:44:16;;;;;;;18.80;11.85;;;10.10;98.00;;;;;;4985185;28;20125;-93
2023/03/21 00:46:43;;;;;;;15.10;10.85;;;10.10;98.10;;;;;;4967626;28;20038;-92
2023/03/21 00:49:32;;;;;;;14.82;10.60;;;10.10;98.10;;;;;;4985718;28;20052;-93
2023/03/21 00:52:05;;;;;;;18.95;11.07;;;10.10;98.10;;;;;;4983641;28;20045;-94
2023/03/21 00:54:50;;;;;;;15.70;9.63;;;10.10;98.10;;;;;;4986637;28;20053;-94
2023/03/21 00:57:18;;;;;;;13.90;9.00;;;10.10;98.10;;;;;;5009367;28;20050;-93
2023/03/21 00:59:50;;;;;;;15.57;8.45;;;10.10;98.10;;;;;;4984033;28;20060;-94
2023/03/21 01:02:21;;;;;;;16.00;9.95;;;10.10;98.10;;;;;;4983540;28;20037;-94
2023/03/21 01:04:49;;;;;;;15.02;9.77;;;10.10;98.10;;;;;;4982842;28;20042;-93
2023/03/21 01:07:16;;;;;;;14.90;8.48;;;10.10;98.10;;;;;;4983012;28;20052;-93
2023/03/21 01:09:44;;;;;;;11.20;6.47;;;10.10;98.10;;;;;;4983490;28;20483;-93
2023/03/21 01:12:14;;;;;;;13.48;8.05;;;10.10;98.10;;;;;;4983197;28;20089;-93
2023/03/21 01:14:41;;;;;;;14.07;8.98;;;10.20;98.20;;;;;;4998740;28;20046;-93
2023/03/21 01:17:11;;;;;;;16.80;11.18;;;10.20;98.10;;;;;;4981746;28;20141;-94
2023/03/21 01:19:42;;;;;;;15.25;11.60;;;10.20;98.10;;;;;;4983389;28;20050;-93
2023/03/21 01:22:19;;;;;;;17.25;10.18;;;10.10;98.10;;;;;;4998513;28;20042;-93
2023/03/21 01:24:47;;;;;;;18.65;10.20;;;10.10;98.10;;;;;;4982768;28;20042;-93
2023/03/21 01:27:34;;;;;;;17.63;10.68;;;10.10;98.10;;;;;;4985121;28;20096;-93
2023/03/21 01:30:08;;;;;;;13.65;9.68;;;10.10;98.20;;;;;;4982523;28;20129;-93
2023/03/21 01:32:46;;;;;;;16.55;10.75;;;10.10;98.20;;;;;;4998230;28;20048;-93
2023/03/21 01:35:13;;;;;;;15.90;9.68;;;10.10;98.20;;;;;;4998500;28;20567;-93
2023/03/21 01:37:42;;;;;;;14.68;9.38;;;10.10;98.20;;;;;;4982376;28;20120;-93
2023/03/21 01:40:23;;;;;;;13.27;8.95;;;10.10;98.20;;;;;;4983068;28;20101;-87
2023/03/21 01:42:55;;;;;;;14.10;9.52;;;10.10;98.20;;;;;;4981108;28;20037;-86
2023/03/21 01:46:00;;;;;;;16.05;9.75;;;10.10;98.20;;;;;;4980764;28;20108;-86
2023/03/21 01:48:56;;;;;;;17.45;10.18;;;10.10;98.20;;;;;;4999934;28;20042;-86
2023/03/21 01:51:26;;;;;;;16.20;9.77;;;10.00;98.20;;;;;;4997325;28;20111;-86
2023/03/21 01:53:59;;;;;;;11.77;8.38;;;9.90;98.30;;;;;;4989644;28;20091;-93
2023/03/21 01:56:36;;;;;;;15.70;9.50;;;9.90;98.30;;;;;;5017586;28;20041;-93
2023/03/21 01:59:13;;;;;;;15.15;9.27;;;9.90;98.40;;;;;;5018270;28;20072;-87
2023/03/21 02:01:50;;;;;;;13.65;8.70;;;9.90;98.40;;;;;;4996476;28;20046;-87
2023/03/21 02:04:26;;;;;;;13.77;8.68;;;9.90;98.50;;;;;;4983334;28;20142;-86
2023/03/21 02:07:22;;;;;;;15.40;8.35;;;9.90;98.50;;;;;;4983495;28;20046;-86
2023/03/21 02:09:54;;;;;;;11.63;8.32;;;9.90;98.50;;;;;;4962259;28;20038;-86
2023/03/21 02:12:23;;;;;;;12.95;7.10;;;9.90;98.50;;;;;;4998953;28;20099;-86
2023/03/21 02:14:52;;;;;;;12.13;7.43;;;9.90;98.50;;;;;;4997649;28;20409;-86
2023/03/21 02:17:55;;;;;;;11.18;7.70;;;10.00;98.50;;;;;;4980577;28;20494;-86
2023/03/21 02:21:11;;;;;;;12.93;6.68;;;10.00;98.50;;;;;;4985933;28;20046;-86
2023/03/21 02:23:53;;;;;;;12.73;7.18;;;10.00;98.50;;;;;;4917668;29;20381;-86
2023/03/21 02:26:40;;;;;;;10.38;6.15;;;10.00;98.50;;;;;;4918316;29;20052;-86
2023/03/21 02:29:37;;;;;;;11.20;7.25;;;10.00;98.40;;;;;;4967479;28;20042;-86
2023/03/21 02:32:29;;;;;;;11.02;6.18;;;10.00;98.40;;;;;;4982828;28;20049;-86
2023/03/21 02:35:31;;;;;;;12.23;8.33;;;10.00;98.40;;;;;;4994771;28;20050;-86
2023/03/21 02:38:17;;;;;;;13.43;8.18;;;10.00;98.50;;;;;;4996469;28;20392;-86
2023/03/21 02:41:04;;;;;;;11.70;7.60;;;10.00;98.50;;;;;;4984293;28;20132;-86
2023/03/21 02:44:10;;;;;;;14.65;9.40;;;10.00;98.50;;;;;;4983360;28;20073;-91
2023/03/21 02:47:05;;;;;;;14.13;7.70;;;10.00;98.40;;;;;;5003814;28;20490;-92
2023/03/21 02:49:48;;;;;;;11.70;6.90;;;10.00;98.40;;;;;;5004324;28;20042;-92
2023/03/21 02:52:21;;;;;;;10.77;6.65;;;10.00;98.50;;;;;;5004160;28;20041;-92
2023/03/21 02:55:12;;;;;;;14.32;8.07;;;10.00;98.40;;;;;;5003236;28;20041;-91
2023/03/21 02:57:49;;;;;;;13.77;8.70;;;10.00;98.50;;;;;;4983221;28;20057;-91
2023/03/21 03:00:25;;;;;;;13.93;9.40;;;10.00;98.50;;;;;;5001189;28;20117;-91
2023/03/21 03:02:54;;;;;;;14.52;9.13;;;10.00;98.50;;;;;;5004463;28;20038;-92
2023/03/21 03:05:56;;;;;;;15.23;9.65;;;10.00;98.50;;;;;;4990183;28;20046;-92
2023/03/21 03:08:47;;;;;;;12.50;8.23;;;10.00;98.50;;;;;;5004530;28;20050;-91
2023/03/21 03:11:32;;;;;;;14.82;9.18;;;10.10;98.50;;;;;;4994259;28;20042;-86
2023/03/21 03:14:07;;;;;;;15.27;9.35;;;10.00;98.50;;;;;;4994685;28;20060;-86
2023/03/21 03:17:30;;;;;;;18.52;9.90;;;10.00;98.50;;;;;;4981803;28;20422;-86
2023/03/21 03:20:24;;;;;;;15.10;10.18;;;10.00;98.50;;;;;;4999053;28;20045;-85
2023/03/21 03:23:30;;;;;;;15.63;9.40;;;10.00;98.50;;;;;;4999339;28;20159;-86
2023/03/21 03:26:26;;;;;;;14.77;10.23;;;10.00;98.50;;;;;;4954315;28;20522;-86
2023/03/21 03:29:02;;;;;;;17.80;10.13;;;10.00;98.50;;;;;;4961173;28;20047;-86
2023/03/21 03:31:34;;;;;;;17.35;11.27;;;10.00;98.50;;;;;;4978810;28;20501;-86
2023/03/21 03:34:09;;;;;;;18.45;11.85;;;10.00;98.60;;;;;;4992442;28;20073;-86
2023/03/21 03:36:43;;;;;;;16.33;11.63;;;10.00;98.60;;;;;;4987131;28;20070;-85
2023/03/21 03:39:15;;;;;;;17.73;11.98;;;9.90;98.60;;;;;;4998837;28;20045;-85
2023/03/21 03:41:53;;;;;;;18.58;11.75;;;9.90;98.70;;;;;;4982711;28;20050;-86
2023/03/21 03:44:43;;;;;;;16.50;10.15;;;9.90;98.70;;;;;;4998184;28;20038;-85
2023/03/21 03:47:26;;;;;;;13.73;9.20;;;9.90;98.80;;;;;;4998275;28;20080;-86
2023/03/21 03:50:19;;;;;;;14.93;8.80;;;9.90;98.80;;;;;;4983429;28;20046;-85
2023/03/21 03:52:58;;;;;;;15.13;9.10;;;9.90;98.80;;;;;;4991606;28;20038;-85
2023/03/21 03:55:33;;;;;;;;;;;9.90;98.80;;;;;;4983418;28;20093;-85
2023/03/21 03:58:11;;;;;;;14.27;9.27;;;9.80;98.80;;;;;;4998224;28;20287;-86
2023/03/21 04:00:50;;;;;;;13.88;8.07;;;9.80;98.80;;;;;;4993549;28;20482;-86
2023/03/21 04:03:17;;;;;;;12.57;7.45;;;9.90;98.80;;;;;;4948819;28;20410;-85
2023/03/21 04:05:45;;;;;;;14.88;7.80;;;9.90;98.80;;;;;;4995529;28;20077;-86
2023/03/21 04:08:16;;;;;;;15.57;8.20;;;9.80;98.80;;;;;;5004140;28;20065;-86
2023/03/21 04:10:48;;;;;;;11.05;6.60;;;9.90;98.80;;;;;;4967491;28;20046;-85
2023/03/21 04:13:18;;;;;;;13.38;7.22;;;9.90;98.80;;;;;;4993388;28;20046;-85
2023/03/21 04:16:07;;;;;;;11.75;6.95;;;9.90;98.70;;;;;;4984885;28;20050;-85
2023/03/21 04:18:34;;;;;;;16.50;8.07;;;9.90;98.70;;;;;;4982622;28;20104;-85
2023/03/21 04:21:06;;;;;;;10.57;6.70;;;9.90;98.70;;;;;;4996542;28;20049;-85
2023/03/21 04:23:34;;;;;;;10.15;5.68;;;9.80;98.70;;;;;;4982809;28;20046;-85
2023/03/21 04:26:03;;;;;;;9.40;5.90;;;9.80;98.70;;;;;;4976867;28;20062;-86
2023/03/21 04:28:36;;;;;;;8.73;5.32;;;9.80;98.70;;;;;;4963489;28;20056;-86
2023/03/21 04:31:25;;;;;;;7.82;4.40;;;9.80;98.80;;;;;;4962118;28;20050;-86
2023/03/21 04:34:08;;;;;;;8.02;4.03;;;9.80;98.80;;;;;;4967679;28;20046;-85
2023/03/21 04:36:42;;;;;;;9.18;4.60;;;9.80;98.80;;;;;;4962894;28;20057;-85
2023/03/21 04:39:12;;;;;;;7.47;4.13;;;9.80;98.80;;;;;;4963734;28;20479;-85
2023/03/21 04:41:44;;;;;;;9.18;4.25;;;9.80;98.80;;;;;;4971164;28;20042;-85
2023/03/21 04:44:17;;;;;;;8.93;4.03;;;9.80;98.80;;;;;;4978198;28;20092;-86
2023/03/21 04:46:45;;;;;;;6.70;3.53;;;9.80;98.80;;;;;;4962484;28;20101;-85
2023/03/21 04:49:17;;;;;;;6.45;3.65;;;9.80;98.80;;;;;;4979011;28;20042;-85
2023/03/21 04:51:45;;;;;;;5.60;2.88;;;9.80;98.80;;;;;;4959775;28;20050;-86
2023/03/21 04:54:17;;;;;;;6.32;3.50;;;9.80;98.70;;;;;;4971280;28;20562;-86
2023/03/21 04:56:44;;;;;;;7.50;3.20;;;9.80;98.70;;;;;;4971377;28;20046;-86
2023/03/21 04:59:14;;;;;;;6.63;3.05;;;9.90;98.70;;;;;;4945890;28;20042;-85
2023/03/21 05:01:42;;;;;;;4.70;2.50;;;9.90;98.70;;;;;;4970124;28;20125;-86
2023/03/21 05:04:11;;;;;;;3.67;2.05;;;9.90;98.70;;;;;;4957849;28;20046;-86
2023/03/21 05:06:41;;;;;;;5.93;2.85;;;9.90;98.70;;;;;;4978185;28;20117;-86
2023/03/21 05:09:08;;;;;;;5.45;2.58;;;9.90;98.70;;;;;;4977709;28;20046;-86
2023/03/21 05:11:39;;;;;;;4.95;2.60;;;9.90;98.70;;;;;;4963071;28;20039;-85
2023/03/21 05:14:13;;;;;;;6.82;3.30;;;9.90;98.60;;;;;;4950431;28;20046;-86
2023/03/21 05:16:43;;;;;;;5.53;2.88;;;9.80;98.60;;;;;;4976620;28;20046;-85
2023/03/21 05:19:12;;;;;;;5.57;2.80;;;9.80;98.60;;;;;;4977831;28;20043;-85
2023/03/21 05:21:42;;;;;;;7.57;3.33;;;9.80;98.60;;;;;;4962050;28;20046;-85
2023/03/21 05:24:18;;;;;;;6.18;3.00;;;9.80;98.60;;;;;;4962532;28;20043;-85
2023/03/21 05:26:51;;;;;;;5.97;3.22;;;9.70;98.60;;;;;;4972006;28;20042;-85
2023/03/21 05:29:21;;;;;;;7.40;3.97;;;9.70;98.60;;;;;;4980497;28;20125;-85
2023/03/21 05:31:57;;;;;;;8.70;4.00;;;9.70;98.70;;;;;;4997183;28;20045;-93
2023/03/21 05:34:25;;;;;;;6.60;3.60;;;9.70;98.70;;;;;;4998265;28;20054;-92
2023/03/21 05:36:54;;;;;;;8.52;4.50;;;9.70;98.70;;;;;;4981073;28;20050;-93
2023/03/21 05:39:24;;;;;;;10.40;3.88;;;9.60;98.70;;;;;;4998658;28;20042;-92
2023/03/21 05:42:13;;;;;;;8.75;3.22;;;9.60;98.70;;;;;;4998235;28;20042;-86
2023/03/21 05:44:41;;;;;;;6.50;3.08;;;9.60;98.70;;;;;;4996155;28;20572;-86
2023/03/21 05:47:15;;;;;;;9.05;3.58;;;9.60;98.80;;;;;;4979282;28;20038;-85
2023/03/21 05:49:46;;;;;;;;;;;9.60;98.80;;;;;;4979682;28;20097;-86
2023/03/21 05:52:14;;;;;;;5.18;2.50;;;9.60;98.80;;;;;;4980073;28;19940;-85
2023/03/21 05:54:48;;;;;;;5.43;2.70;;;9.60;98.80;;;;;;4957799;28;20072;-85
2023/03/21 05:57:21;;;;;;;4.10;2.22;;;9.60;98.80;;;;;;4992296;28;20041;-85
2023/03/21 06:00:02;;;;;;;5.13;2.70;;;9.60;98.80;;;;;;4985264;28;20426;-85
2023/03/21 06:02:41;;;;;;;4.65;2.22;;;9.60;98.80;;;;;;4996694;28;20060;-85
2023/03/21 06:05:25;;;;;;;3.95;1.52;;;9.60;98.80;;;;;;4995724;28;20088;-85
2023/03/21 06:07:52;;;;;;;3.90;1.90;;;9.60;98.80;;;;;;4976172;28;20100;-85
2023/03/21 06:10:20;;;;;;;4.47;2.00;;;9.60;98.80;;;;;;5005182;28;20122;-84
2023/03/21 06:12:48;;;;;;;4.38;1.90;;;9.60;98.80;;;;;;4978325;28;20047;-85
2023/03/21 06:15:25;;;;;;;4.25;2.10;;;9.70;98.80;;;;;;4996154;28;20046;-85
2023/03/21 06:18:03;;;;;;;3.83;1.67;;;9.70;98.80;;;;;;4996195;28;20050;-84
2023/03/21 06:20:31;;;;;;;3.75;1.48;;;9.70;98.80;;;;;;4982101;28;20050;-85
2023/03/21 06:23:06;;;;;;;3.42;1.20;;;9.70;98.80;;;;;;4981141;28;20057;-85
2023/03/21 06:25:34;;;;;;;3.47;1.45;;;9.80;98.80;;;;;;4979922;28;20052;-85
2023/03/21 06:28:01;;;;;;;2.88;1.35;;;9.80;98.80;;;;;;4995961;28;20050;-85
2023/03/21 06:30:32;;;;;;;4.28;1.85;;;9.80;98.80;;;;;;4997361;28;20046;-92
2023/03/21 06:33:19;;;;;;;4.78;1.98;;;9.80;98.80;;;;;;4990667;28;20049;-93
2023/03/21 06:35:53;;;;;;;4.95;2.60;;;9.80;98.80;;;;;;4994750;28;20041;-92
2023/03/21 06:38:21;;;;;;;4.80;2.63;;;9.80;98.70;;;;;;4997143;28;20046;-92
2023/03/21 06:40:49;;;;;;;7.05;3.20;;;9.80;98.70;;;;;;4997444;28;20056;-92
2023/03/21 06:43:17;;;;;;;6.25;2.80;;;9.80;98.70;;;;;;4981671;28;20073;-92
2023/03/21 06:45:45;;;;;;;6.35;2.53;;;9.80;98.70;;;;;;5000800;28;20049;-92
2023/03/21 06:48:12;;;;;;;7.95;3.20;;;9.90;98.70;;;;;;4999901;28;20613;-92
2023/03/21 06:50:50;;;;;;;7.35;3.35;;;9.90;98.60;;;;;;4986156;28;20042;-92
2023/03/21 06:53:23;;;;;;;6.18;2.92;;;9.90;98.60;;;;;;4982228;28;20134;-92
2023/03/21 06:56:14;;;;;;;5.28;2.00;;;9.90;98.60;;;;;;4977302;28;20467;-91
2023/03/21 06:58:42;;;;;;;6.40;2.38;;;10.00;98.60;;;;;;4966793;28;20046;-92
2023/03/21 07:01:17;;;;;;;6.85;2.35;;;10.00;98.50;;;;;;4999301;28;20046;-92
2023/03/21 07:03:57;;;;;;;6.78;2.53;;;10.00;98.50;;;;;;5015910;28;20042;-92
2023/03/21 07:06:30;;;;;;;5.72;2.05;;;10.10;98.50;;;;;;5005993;28;20132;-92
2023/03/21 07:08:58;;;;;;;5.53;1.88;;;10.10;98.40;;;;;;5020409;28;20053;-92
2023/03/21 07:11:35;;;;;;;4.00;2.05;;;10.20;98.40;;;;;;4980441;28;20034;-93
2023/03/21 07:14:04;;;;;;;6.05;2.05;;;10.20;98.30;;;;;;4979348;28;20054;-92
2023/03/21 07:16:37;;;;;;;4.57;1.88;;;10.20;98.30;;;;;;5003542;28;20100;-93
2023/03/21 07:19:04;;;;;;;3.58;1.50;;;10.30;98.30;;;;;;5000721;28;20446;-85
2023/03/21 07:21:34;;;;;;;4.68;1.77;;;10.30;98.20;;;;;;4999359;28;20050;-85
2023/03/21 07:24:03;;;;;;;10.93;3.42;;;10.40;98.10;;;;;;4983706;28;20069;-85
2023/03/21 07:26:33;;;;;;;5.90;2.13;;;10.40;98.10;;;;;;4982693;28;20052;-85
2023/03/21 07:29:02;;;;;;;5.65;2.65;;;10.50;98.00;;;;;;4978690;28;20493;-84
2023/03/21 07:31:29;;;;;;;6.43;3.25;;;10.50;97.90;;;;;;4982426;28;20042;-85
2023/03/21 07:34:00;;;;;;;6.38;2.10;;;10.60;97.90;;;;;;4989045;28;20038;-85
2023/03/21 07:36:45;;;;;;;5.43;2.15;;;10.60;97.80;;;;;;4982482;28;20104;-85
2023/03/21 07:39:13;;;;;;;4.75;2.40;;;10.70;97.70;;;;;;4984519;28;20050;-85
2023/03/21 07:41:42;;;;;;;5.30;2.70;;;10.70;97.70;;;;;;4985434;28;20414;-85
2023/03/21 07:44:23;;;;;;;6.22;2.97;;;10.70;97.70;;;;;;4998315;28;20045;-85
2023/03/21 07:47:01;;;;;;;5.57;2.78;;;10.70;97.60;;;;;;4985105;28;20152;-86
2023/03/21 07:49:28;;;;;;;8.98;3.97;;;10.60;97.90;;;;;;4992109;28;20642;-84
2023/03/21 07:51:56;;;;;;;8.85;4.20;;;10.60;97.60;;;;;;4998174;28;20042;-84
2023/03/21 07:54:27;;;;;;;6.93;3.50;;;10.60;97.60;;;;;;5014228;28;20061;-85
2023/03/21 07:56:55;;;;;;;10.82;5.05;;;10.50;97.70;;;;;;4986345;28;20047;-85
2023/03/21 07:59:25;;;;;;;8.90;4.45;;;10.50;97.70;;;;;;4991146;28;20089;-85
2023/03/21 08:01:56;;;;;;;6.03;3.75;;;10.40;97.70;;;;;;4956530;28;20047;-84
2023/03/21 08:04:24;;;;;;;6.50;3.95;;;10.40;97.80;;;;;;4984764;28;20046;-85
2023/03/21 08:06:51;;;;;;;9.07;4.47;;;10.30;97.90;;;;;;4995087;28;20060;-85
2023/03/21 08:09:19;;;;;;;8.52;4.25;;;10.30;97.90;;;;;;4980234;28;20041;-85
2023/03/21 08:11:46;;;;;;;7.35;3.55;;;10.30;98.00;;;;;;4970313;28;20049;-85
2023/03/21 08:14:13;;;;;;;9.13;3.72;;;10.30;98.10;;;;;;4976773;28;20077;-85
2023/03/21 08:16:40;;;;;;;7.55;4.18;;;10.30;98.10;;;;;;4975448;28;20046;-86
2023/03/21 08:19:08;;;;;;;7.47;3.97;;;10.30;98.10;;;;;;4981633;28;20064;-85
2023/03/21 08:21:37;;;;;;;7.07;3.67;;;10.30;98.10;;;;;;4981206;28;20049;-86
2023/03/21 08:24:05;;;;;;;9.23;4.00;;;10.30;98.20;;;;;;4992383;28;20037;-92
2023/03/21 08:26:33;;;;;;;8.65;4.00;;;10.30;98.20;;;;;;4992649;28;20061;-92
2023/03/21 08:29:01;;;;;;;10.05;4.05;;;10.30;98.20;;;;;;4993895;28;20041;-93
2023/03/21 08:31:29;;;;;;;6.88;3.38;;;10.30;98.20;;;;;;4987585;28;20051;-92
2023/03/21 08:33:59;;;;;;;7.93;3.25;;;10.40;98.20;;;;;;4983208;28;20084;-92
2023/03/21 08:36:26;;;;;;;7.95;4.00;;;10.40;98.20;;;;;;4990963;28;20046;-92
2023/03/21 08:39:03;;;;;;;8.90;3.90;;;10.40;98.20;;;;;;5006395;28;20069;-92
2023/03/21 08:41:32;;;;;;;7.03;3.50;;;10.40;98.20;;;;;;4989677;28;20405;-91
2023/03/21 08:44:00;;;;;;;7.90;3.13;;;10.40;98.20;;;;;;4991885;28;20041;-90
2023/03/21 08:46:30;;;;;;;8.93;3.42;;;10.40;98.20;;;;;;5015725;28;20050;-92
2023/03/21 08:49:00;;;;;;;7.13;3.35;;;10.50;98.20;;;;;;4984154;28;20606;-92
2023/03/21 08:51:30;;;;;;;8.50;3.55;;;10.60;98.20;;;;;;4983389;28;20141;-93
2023/03/21 08:54:00;;;;;;;8.25;3.50;;;10.60;98.20;;;;;;4998829;28;20060;-92
2023/03/21 08:56:28;;;;;;;7.90;3.85;;;10.50;98.20;;;;;;4998967;28;20056;-87
2023/03/21 08:59:02;;;;;;;11.48;3.97;;;10.50;98.20;;;;;;5000442;28;20054;-88
2023/03/21 09:01:31;;;;;;;7.15;2.85;;;10.50;98.30;;;;;;4998193;28;20056;-86
2023/03/21 09:04:00;;;;;;;8.23;3.28;;;10.60;98.30;;;;;;4982412;28;20061;-88
2023/03/21 09:06:28;;;;;;;5.75;3.20;;;10.60;98.30;;;;;;4988164;28;20049;-88
2023/03/21 09:08:56;;;;;;;13.68;4.85;;;10.60;98.30;;;;;;4990461;28;20125;-87
2023/03/21 09:11:29;;;;;;;6.55;3.38;;;10.60;98.30;;;;;;4997912;28;20042;-87
2023/03/21 09:13:56;;;;;;;5.95;3.25;;;10.60;98.20;;;;;;4987038;28;20129;-87
2023/03/21 09:16:27;;;;;;;6.35;3.75;;;10.70;98.30;;;;;;4991446;28;20046;-86
2023/03/21 09:18:59;;;;;;;6.55;3.05;;;10.70;98.30;;;;;;4985586;28;20057;-87
2023/03/21 09:21:33;;;;;;;5.68;3.10;;;10.80;98.30;;;;;;5000314;28;20058;-88
2023/03/21 09:24:04;;;;;;;6.75;3.65;;;10.80;98.30;;;;;;4997601;28;20053;-88
2023/03/21 09:26:32;;;;;;;7.68;3.85;;;10.80;98.30;;;;;;4991559;28;20050;-88
2023/03/21 09:29:04;;;;;;;10.18;4.30;;;10.80;98.30;;;;;;4981484;28;20049;-93
2023/03/21 09:31:32;;;;;;;7.78;3.55;;;10.90;98.30;;;;;;4998205;28;20141;-92
2023/03/21 09:33:59;;;;;;;7.43;3.40;;;10.90;98.20;;;;;;4982348;28;20058;-92
2023/03/21 09:36:31;;;;;;;8.52;3.78;;;11.00;98.20;;;;;;4982921;28;20042;-93
2023/03/21 09:39:04;;;;;;;5.18;2.80;;;11.10;98.20;;;;;;4995018;28;20042;-93
2023/03/21 09:41:40;;;;;;;6.25;2.58;;;11.20;98.20;;;;;;4947131;28;20134;-93
2023/03/21 09:44:26;;;;;;;6.22;2.40;;;11.30;98.10;;;;;;4986275;28;20065;-93
2023/03/21 09:47:20;;;;;;;3.88;2.15;;;11.40;98.00;;;;;;4982176;28;20132;-92
2023/03/21 09:50:10;;;;;;;5.35;1.98;;;11.40;98.00;;;;;;5001145;28;20037;-92
2023/03/21 09:53:06;;;;;;;5.32;2.00;;;11.40;98.00;;;;;;4978408;28;20050;-93
2023/03/21 09:55:38;;;;;;;5.30;2.08;;;11.30;98.00;;;;;;4962887;28;20054;-93
2023/03/21 09:58:25;;;;;;;3.63;2.28;;;11.30;98.00;;;;;;4978741;28;20054;-93
2023/03/21 10:00:59;;;;;;;8.25;2.35;;;11.40;98.00;;;;;;5000088;28;20560;-93
2023/03/21 10:03:33;;;;;;;3.65;2.13;;;11.30;98.00;;;;;;4982079;28;20041;-92
2023/03/21 10:06:06;;;;;;;4.68;2.00;;;11.30;98.10;;;;;;4993865;28;20046;-91
2023/03/21 10:08:35;;;;;;;;;;;11.40;98.10;;;;;;5003263;28;20042;-92
2023/03/21 10:11:20;;;;;;;6.97;2.85;;;11.30;98.10;;;;;;4992732;28;19925;-90
2023/03/21 10:14:05;;;;;;;4.38;2.38;;;11.40;98.00;;;;;;4985523;28;20042;-92
2023/03/21 10:16:42;;;;;;;5.20;2.50;;;11.50;98.00;;;;;;4986674;28;20459;-93
2023/03/21 10:19:17;;;;;;;4.65;2.17;;;11.50;97.90;;;;;;4996708;28;20038;-91
2023/03/21 10:21:47;;;;;;;3.83;2.10;;;11.60;98.10;;;;;;4980606;28;20045;-90
2023/03/21 10:24:28;;;;;;;;;;;11.70;97.80;;;;;;4987681;28;20050;-91
2023/03/21 10:26:58;;;;;;;5.15;2.60;;;11.80;97.70;;;;;;4992509;28;20002;-92
2023/03/21 10:29:46;;;;;;;5.35;2.50;;;11.90;97.60;;;;;;5001383;28;20460;-91
2023/03/21 10:32:17;;;;;;;7.15;2.53;;;12.00;97.70;;;;;;4962410;28;20108;-90
2023/03/21 10:34:49;;;;;;;6.50;2.25;;;12.10;97.30;;;;;;4983468;28;20054;-91
2023/03/21 10:37:17;;;;;;;5.85;2.17;;;12.20;97.20;;;;;;5016776;28;20041;-91
2023/03/21 10:39:47;;;;;;;6.05;2.40;;;12.30;97.20;;;;;;4989388;28;20046;-92
2023/03/21 10:42:31;;;;;;;4.55;2.45;;;12.40;97.00;;;;;;4993510;28;20100;-88
2023/03/21 10:44:59;;;;;;;5.15;2.67;;;12.40;96.90;;;;;;4998010;28;20161;-88
2023/03/21 10:47:36;;;;;;;3.83;2.03;;;12.50;97.00;;;;;;4974871;28;20046;-87
2023/03/21 10:50:07;;;;;;;3.50;1.83;;;12.60;96.90;;;;;;4963609;28;20140;-86
2023/03/21 10:52:46;;;;;;;5.10;1.98;;;12.60;96.80;;;;;;4995034;28;20040;-86
2023/03/21 10:55:27;;;;;;;4.40;1.73;;;12.70;96.80;;;;;;4987714;28;20077;-86
2023/03/21 10:58:06;;;;;;;4.68;1.83;;;12.70;97.00;;;;;;4979123;28;20050;-85
2023/03/21 11:00:42;;;;;;;5.43;2.00;;;12.70;96.80;;;;;;4980954;28;20552;-87
2023/03/21 11:03:42;;;;;;;4.47;2.45;;;12.80;96.80;;;;;;4984644;28;20181;-87
2023/03/21 11:06:21;;;;;;;6.40;3.35;;;12.80;96.50;;;;;;4996268;28;20602;-88
2023/03/21 11:09:16;;;;;;;4.57;2.90;;;12.90;96.50;;;;;;4996327;28;20049;-88
2023/03/21 11:12:07;;;;;;;5.20;2.50;;;13.00;96.30;;;;;;4986975;28;20073;-87
2023/03/21 11:14:49;;;;;;;4.95;2.45;;;13.00;96.20;;;;;;4962485;28;20073;-88
2023/03/21 11:17:17;;;;;;;4.15;1.88;;;13.10;96.10;;;;;;4970056;28;20157;-87
2023/03/21 11:19:49;;;;;;;3.47;1.70;;;13.20;96.10;;;;;;4974079;28;20054;-88
2023/03/21 11:22:23;;;;;;;6.57;3.13;;;13.30;96.00;;;;;;4969126;28;20046;-86
2023/03/21 11:24:53;;;;;;;4.57;2.78;;;13.20;95.60;;;;;;4980415;28;20053;-86
2023/03/21 11:27:20;;;;;;;4.95;2.47;;;13.20;95.60;;;;;;4999810;28;20045;-87
2023/03/21 11:29:51;;;;;;;5.65;2.92;;;13.10;95.60;;;;;;4979984;28;20073;-88
2023/03/21 11:32:25;;;;;;;7.28;3.20;;;13.10;95.60;;;;;;4995819;28;20038;-87
2023/03/21 11:35:11;;;;;;;6.18;3.30;;;13.10;95.40;;;;;;4978376;28;20057;-87
2023/03/21 11:37:50;;;;;;;8.85;3.65;;;13.20;95.30;;;;;;4995086;28;20064;-86
2023/03/21 11:40:24;;;;;;;9.55;3.47;;;13.20;95.00;;;;;;5017622;28;20046;-86
2023/03/21 11:42:59;;;;;;;7.00;4.00;;;13.10;94.80;;;;;;4991591;28;20050;-87
2023/03/21 11:45:26;;;;;;;9.23;3.45;;;13.10;94.70;;;;;;4978554;28;20093;-87
2023/03/21 11:47:56;;;;;;;5.72;3.10;;;13.10;94.80;;;;;;4990446;28;20049;-87
2023/03/21 11:50:32;;;;;;;;;;;13.20;94.90;;;;;;4977153;28;20433;-86
2023/03/21 11:53:02;;;;;;;7.30;2.70;;;13.30;94.70;;;;;;4986025;28;20374;-87
2023/03/21 11:56:01;;;;;;;5.65;2.92;;;13.40;94.70;;;;;;4976733;28;20061;-86
2023/03/21 11:58:54;;;;;;;6.38;2.90;;;13.50;94.40;;;;;;4966027;28;20046;-87
2023/03/21 12:01:36;;;;;;;5.38;3.00;;;13.50;94.40;;;;;;5005385;28;20133;-85
2023/03/21 12:04:21;;;;;;;5.33;3.70;;;13.50;94.20;;;;;;4984747;28;20046;-86
2023/03/21 12:06:58;;;;;;;8.45;3.58;;;13.50;93.80;;;;;;5003206;28;20049;-90
2023/03/21 12:09:45;;;;;;;7.28;3.83;;;13.40;93.70;;;;;;5016160;28;20072;-89
2023/03/21 12:13:04;;;;;;;6.18;3.03;;;13.40;93.80;;;;;;4988871;28;20109;-88
2023/03/21 12:15:56;;;;;;;6.25;3.42;;;13.50;93.80;;;;;;4948560;28;20053;-92
2023/03/21 12:21:55;;;;;;;5.40;2.58;;;13.60;93.40;;;;;;4988701;28;20471;-87
2023/03/21 12:24:30;;;;;;;7.63;4.13;;;13.60;93.20;;;;;;5017918;28;20378;-87
2023/03/21 12:27:23;;;;;;;5.18;3.22;;;13.70;93.00;;;;;;4968653;28;20054;-88
2023/03/21 12:30:23;;;;;;;7.03;3.13;;;13.70;93.00;;;;;;4981713;28;20042;-87
2023/03/21 12:32:53;;;;;;;8.45;3.40;;;13.70;92.90;;;;;;4981989;28;20077;-86
2023/03/21 12:35:52;;;;;;;7.00;3.55;;;13.70;92.80;;;;;;4983193;28;20050;-85
2023/03/21 12:38:57;;;;;;;6.25;2.58;;;13.60;92.80;;;;;;4977507;28;20061;-86
2023/03/21 12:41:36;;;;;;;6.70;2.83;;;13.60;92.90;;;;;;4997932;28;20056;-87
2023/03/21 12:44:09;;;;;;;4.72;2.53;;;13.60;92.80;;;;;;4997590;28;20050;-84
2023/03/21 12:47:01;;;;;;;8.45;3.45;;;13.60;92.80;;;;;;4984294;28;20042;-90
2023/03/21 12:49:33;;;;;;;6.00;2.63;;;13.50;92.40;;;;;;4991121;28;20042;-90
2023/03/21 12:52:10;;;;;;;7.18;2.90;;;13.40;92.70;;;;;;4997108;28;20052;-86
2023/03/21 12:54:45;;;;;;;4.45;2.47;;;13.30;92.70;;;;;;4968804;28;20049;-85
2023/03/21 12:57:29;;;;;;;7.57;2.95;;;13.30;92.80;;;;;;4991635;28;20509;-87
2023/03/21 13:00:10;;;;;;;7.38;2.88;;;13.40;92.70;;;;;;5005664;28;20475;-92
2023/03/21 13:02:50;;;;;;;6.75;2.60;;;13.40;92.70;;;;;;4983219;28;20052;-90
2023/03/21 13:05:19;;;;;;;4.00;2.13;;;13.40;92.60;;;;;;4963374;28;20054;-90
2023/03/21 13:08:11;;;;;;;3.72;1.85;;;13.60;92.70;;;;;;4981401;28;20042;-89
2023/03/21 13:10:43;;;;;;;7.63;2.00;;;13.80;92.60;;;;;;4978095;28;20038;-90
2023/03/21 13:13:12;;;;;;;6.88;2.63;;;13.90;92.50;;;;;;4990700;28;20056;-87
2023/03/21 13:15:47;;;;;;;5.47;2.55;;;14.00;92.20;;;;;;4988523;28;20045;-92
2023/03/21 13:18:52;;;;;;;5.10;2.53;;;14.10;91.90;;;;;;5001451;28;20072;-86
2023/03/21 13:21:47;;;;;;;7.03;2.42;;;14.20;91.80;;;;;;4985498;28;20050;-89
2023/03/21 13:24:43;;;;;;;7.93;3.00;;;14.30;91.50;;;;;;4981969;28;20137;-86
2023/03/21 13:27:38;;;;;;;5.45;2.20;;;14.30;91.50;;;;;;5003813;28;20050;-88
2023/03/21 13:30:20;;;;;;;6.72;2.90;;;14.30;91.60;;;;;;4981830;28;20050;-91
2023/03/21 13:32:50;;;;;;;4.22;2.45;;;14.30;91.30;;;;;;4998899;28;20054;-90
2023/03/21 13:35:42;;;;;;;5.47;2.40;;;14.40;91.40;;;;;;4996021;28;20069;-93
2023/03/21 13:38:31;;;;;;;7.50;2.80;;;14.50;91.20;;;;;;4998584;28;20465;-93